createdAt,value
2022-12-29T00:00:22.133Z,67.00
2022-12-29T00:02:52.805Z,76.57
2022-12-29T00:05:19.824Z,71.18
2022-12-29T00:07:46.722Z,85.97
2022-12-29T00:10:16.652Z,71.10
2022-12-29T00:13:02.109Z,89.47
2022-12-29T00:15:38.120Z,78.28
2022-12-29T00:18:05.266Z,80.30
2022-12-29T00:20:54.095Z,78.68
2022-12-29T00:23:47.967Z,71.38
2022-12-29T00:26:36.099Z,70.78
2022-12-29T00:29:22.491Z,65.93
2022-12-29T00:32:08.686Z,63.55
2022-12-29T00:34:54.653Z,62.75
2022-12-29T00:37:42.291Z,64.90
2022-12-29T00:40:28.350Z,78.85
2022-12-29T00:43:14.349Z,85.47
2022-12-29T00:45:44.630Z,94.43
2022-12-29T00:48:11.421Z,91.00
2022-12-29T00:50:38.949Z,74.80
2022-12-29T00:53:05.839Z,85.70
2022-12-29T00:55:37.781Z,79.57
2022-12-29T00:58:04.687Z,84.10
2022-12-29T01:00:32.251Z,83.35
2022-12-29T01:02:59.320Z,79.37
2022-12-29T01:05:26.374Z,83.00
2022-12-29T01:07:53.269Z,84.70
2022-12-29T01:10:20.067Z,82.35
2022-12-29T01:12:48.481Z,85.90
2022-12-29T01:15:15.926Z,89.25
2022-12-29T01:17:43.209Z,82.55
2022-12-29T01:20:11.821Z,81.70
2022-12-29T01:22:39.096Z,87.88
2022-12-29T01:25:07.314Z,93.45
2022-12-29T01:27:34.977Z,103.03
2022-12-29T01:30:01.856Z,84.57
2022-12-29T01:32:28.743Z,86.70
2022-12-29T01:34:55.651Z,78.47
2022-12-29T01:37:22.638Z,82.22
2022-12-29T01:39:49.487Z,87.50
2022-12-29T01:42:18.985Z,82.55
2022-12-29T01:44:58.107Z,68.97
2022-12-29T01:47:51.439Z,72.82
2022-12-29T01:50:25.398Z,74.40
2022-12-29T01:53:09.050Z,73.10
2022-12-29T01:55:43.457Z,71.33
2022-12-29T01:58:12.323Z,79.37
2022-12-29T02:00:39.405Z,72.18
2022-12-29T02:03:07.999Z,69.03
2022-12-29T02:05:43.207Z,59.93
2022-12-29T02:08:14.474Z,67.32
2022-12-29T02:10:43.229Z,58.57
2022-12-29T02:13:10.387Z,59.87
2022-12-29T02:16:03.052Z,58.50
2022-12-29T02:19:14.301Z,59.60
2022-12-29T02:21:56.349Z,64.13
2022-12-29T02:24:41.286Z,61.33
2022-12-29T02:27:12.256Z,61.03
2022-12-29T02:30:06.460Z,65.00
2022-12-29T02:32:51.435Z,66.87
2022-12-29T02:35:31.961Z,65.80
2022-12-29T02:38:20.639Z,70.13
2022-12-29T02:40:59.283Z,61.60
2022-12-29T02:43:35.861Z,63.42
2022-12-29T02:46:15.813Z,75.13
2022-12-29T02:49:16.784Z,72.73
2022-12-29T02:51:58.284Z,64.75
2022-12-29T02:54:43.964Z,72.90
2022-12-29T02:57:21.304Z,74.32
2022-12-29T02:59:53.403Z,72.18
2022-12-29T03:02:31.260Z,70.55
2022-12-29T03:05:20.767Z,75.38
2022-12-29T03:08:03.071Z,76.97
2022-12-29T03:10:54.661Z,84.63
2022-12-29T03:13:57.007Z,81.50
2022-12-29T03:16:36.492Z,84.37
2022-12-29T03:19:06.324Z,78.90
2022-12-29T03:22:03.724Z,75.77
2022-12-29T03:24:44.637Z,75.30
2022-12-29T03:27:17.898Z,83.53
2022-12-29T03:29:55.675Z,80.97
2022-12-29T03:32:27.044Z,73.83
2022-12-29T03:34:55.968Z,75.30
2022-12-29T03:37:27.645Z,80.07
2022-12-29T03:39:54.638Z,77.63
2022-12-29T03:42:26.240Z,77.53
2022-12-29T03:44:57.392Z,86.87
2022-12-29T03:47:25.689Z,82.23
2022-12-29T03:49:53.254Z,81.93
2022-12-29T03:52:20.412Z,86.73
2022-12-29T03:54:48.132Z,83.70
2022-12-29T03:57:15.072Z,67.90
2022-12-29T03:59:50.478Z,74.97
2022-12-29T04:02:18.180Z,71.67
2022-12-29T04:04:45.599Z,66.83
2022-12-29T04:07:12.546Z,70.67
2022-12-29T04:09:40.798Z,63.87
2022-12-29T04:12:10.061Z,54.83
2022-12-29T04:14:37.003Z,64.70
2022-12-29T04:17:03.824Z,65.20
2022-12-29T04:19:31.340Z,72.43
2022-12-29T04:24:25.045Z,75.33
2022-12-29T04:26:52.078Z,91.13
2022-12-29T04:29:44.634Z,82.30
2022-12-29T04:32:29.856Z,86.80
2022-12-29T04:34:57.272Z,79.57
2022-12-29T04:37:24.666Z,83.30
2022-12-29T04:39:51.529Z,90.13
2022-12-29T04:42:18.481Z,91.18
2022-12-29T04:44:46.094Z,84.67
2022-12-29T04:47:18.842Z,85.60
2022-12-29T04:49:59.967Z,76.23
2022-12-29T04:52:59.352Z,86.50
2022-12-29T04:55:26.994Z,84.90
2022-12-29T04:57:54.033Z,81.55
2022-12-29T05:00:21.068Z,83.78
2022-12-29T05:02:50.717Z,88.50
2022-12-29T05:05:18.011Z,87.38
2022-12-29T05:07:48.519Z,82.10
2022-12-29T05:10:15.493Z,91.63
2022-12-29T05:12:42.562Z,79.57
2022-12-29T05:15:10.629Z,77.82
2022-12-29T05:17:38.509Z,84.70
2022-12-29T05:20:08.821Z,71.43
2022-12-29T05:22:36.477Z,74.70
2022-12-29T05:25:05.300Z,71.68
2022-12-29T05:27:38.092Z,73.00
2022-12-29T05:30:28.510Z,64.83
2022-12-29T05:32:55.855Z,61.50
2022-12-29T05:35:23.745Z,69.33
2022-12-29T05:37:51.628Z,69.03
2022-12-29T05:40:19.292Z,68.53
2022-12-29T05:42:46.414Z,76.73
2022-12-29T05:45:33.794Z,77.53
2022-12-29T05:48:26.009Z,74.40
2022-12-29T05:51:15.974Z,74.87
2022-12-29T05:53:48.257Z,79.40
2022-12-29T05:56:16.805Z,77.20
2022-12-29T05:58:46.651Z,74.10
2022-12-29T06:01:13.607Z,72.23
2022-12-29T06:03:47.699Z,80.90
2022-12-29T06:06:15.438Z,78.60
2022-12-29T06:08:43.001Z,81.18
2022-12-29T06:11:10.381Z,87.57
2022-12-29T06:13:38.839Z,89.47
2022-12-29T06:16:06.194Z,83.30
2022-12-29T06:18:33.612Z,97.97
2022-12-29T06:21:05.858Z,97.23
2022-12-29T06:23:33.521Z,95.63
2022-12-29T06:26:00.826Z,91.27
2022-12-29T06:28:28.199Z,95.37
2022-12-29T06:30:55.138Z,91.50
2022-12-29T06:33:22.523Z,91.73
2022-12-29T06:35:49.342Z,91.73
2022-12-29T06:38:16.677Z,88.40
2022-12-29T06:40:46.393Z,90.57
2022-12-29T06:43:33.404Z,92.57
2022-12-29T06:46:23.011Z,100.90
2022-12-29T06:48:50.547Z,94.97
2022-12-29T06:51:17.322Z,92.83
2022-12-29T06:53:44.846Z,113.00
2022-12-29T06:56:11.649Z,92.38
2022-12-29T06:58:38.845Z,103.17
2022-12-29T07:03:33.760Z,102.70
2022-12-29T07:06:00.935Z,100.17
2022-12-29T07:08:28.286Z,100.40
2022-12-29T07:10:55.165Z,94.28
2022-12-29T07:13:22.219Z,96.82
2022-12-29T07:18:16.166Z,85.32
2022-12-29T07:20:44.097Z,88.32
2022-12-29T07:23:12.013Z,96.35
2022-12-29T07:25:38.955Z,84.53
2022-12-29T07:28:06.135Z,101.88
2022-12-29T07:30:33.436Z,94.15
2022-12-29T07:33:01.371Z,109.43
2022-12-29T07:35:28.194Z,111.18
2022-12-29T07:37:55.486Z,107.90
2022-12-29T07:40:22.333Z,118.20
2022-12-29T07:42:49.555Z,103.97
2022-12-29T07:45:17.608Z,106.72
2022-12-29T07:47:50.599Z,112.10
2022-12-29T07:50:17.701Z,125.15
2022-12-29T07:52:46.031Z,124.45
2022-12-29T07:55:13.159Z,125.10
2022-12-29T07:57:39.938Z,121.15
2022-12-29T08:00:08.315Z,136.13
2022-12-29T08:02:38.962Z,133.00
2022-12-29T08:05:06.933Z,141.52
2022-12-29T08:07:34.261Z,120.60
2022-12-29T08:10:02.528Z,124.65
2022-12-29T08:12:29.538Z,102.35
2022-12-29T08:14:57.049Z,109.93
2022-12-29T08:17:24.039Z,99.70
2022-12-29T08:19:51.219Z,98.82
2022-12-29T08:22:18.227Z,97.95
2022-12-29T08:24:45.278Z,94.65
2022-12-29T08:29:47.893Z,85.10
2022-12-29T08:32:14.816Z,86.93
2022-12-29T08:34:42.218Z,96.20
2022-12-29T08:39:36.463Z,97.95
2022-12-29T08:42:03.333Z,96.55
2022-12-29T08:44:30.898Z,88.57
2022-12-29T08:46:57.726Z,98.38
2022-12-29T08:49:24.784Z,103.88
2022-12-29T08:54:19.286Z,94.50
2022-12-29T08:56:46.197Z,100.93
2022-12-29T08:59:15.858Z,113.15
2022-12-29T09:01:43.881Z,105.43
2022-12-29T09:04:16.507Z,118.55
2022-12-29T09:06:46.324Z,109.07
2022-12-29T09:09:13.674Z,116.35
2022-12-29T09:11:40.965Z,109.47
2022-12-29T09:14:08.057Z,107.95
2022-12-29T09:16:36.210Z,119.32
2022-12-29T09:19:03.945Z,116.57
2022-12-29T09:21:32.060Z,106.60
2022-12-29T09:23:59.305Z,110.68
2022-12-29T09:26:26.361Z,104.05
2022-12-29T09:28:53.830Z,112.38
2022-12-29T09:31:21.081Z,112.00
2022-12-29T09:33:47.915Z,116.70
2022-12-29T09:36:15.898Z,108.72
2022-12-29T09:38:43.147Z,114.18
2022-12-29T09:41:31.153Z,116.88
2022-12-29T09:46:44.893Z,109.90
2022-12-29T09:49:27.269Z,113.65
2022-12-29T09:51:58.880Z,109.18
2022-12-29T09:54:40.600Z,108.78
2022-12-29T09:57:28.168Z,111.07
2022-12-29T10:00:05.498Z,117.82
2022-12-29T10:02:47.888Z,100.13
2022-12-29T10:05:27.683Z,115.22
2022-12-29T10:08:17.260Z,116.38
2022-12-29T10:10:51.948Z,109.10
2022-12-29T10:13:28.539Z,102.13
2022-12-29T10:16:19.234Z,113.03
2022-12-29T10:19:12.239Z,99.63
2022-12-29T10:21:54.908Z,103.13
2022-12-29T10:24:23.654Z,97.20
2022-12-29T10:26:52.798Z,87.55
2022-12-29T10:29:23.063Z,101.55
2022-12-29T10:31:58.965Z,93.78
2022-12-29T10:34:34.550Z,86.50
2022-12-29T10:37:19.174Z,97.88
2022-12-29T10:39:56.447Z,104.05
2022-12-29T10:42:37.943Z,114.93
2022-12-29T10:45:06.741Z,117.18
2022-12-29T10:47:44.058Z,125.55
2022-12-29T10:50:14.391Z,124.45
2022-12-29T10:52:42.192Z,98.85
2022-12-29T10:55:16.755Z,116.95
2022-12-29T10:57:46.541Z,125.40
2022-12-29T11:00:14.741Z,105.63
2022-12-29T11:02:55.923Z,98.80
2022-12-29T11:05:54.331Z,114.93
2022-12-29T11:11:09.871Z,100.05
2022-12-29T11:13:50.455Z,96.22
2022-12-29T11:16:33.169Z,101.20
2022-12-29T11:19:00.214Z,119.53
2022-12-29T11:21:34.874Z,204.88
2022-12-29T11:24:05.049Z,94.93
2022-12-29T11:26:34.666Z,81.93
2022-12-29T11:29:17.272Z,81.43
2022-12-29T11:31:48.663Z,68.97
2022-12-29T11:34:40.794Z,90.45
2022-12-29T11:37:13.387Z,91.72
2022-12-29T11:39:58.001Z,93.18
2022-12-29T11:42:39.305Z,92.25
2022-12-29T11:45:38.317Z,96.68
2022-12-29T11:48:19.729Z,90.30
2022-12-29T11:51:02.295Z,92.47
2022-12-29T11:53:39.835Z,93.47
2022-12-29T11:56:12.089Z,86.18
2022-12-29T11:58:40.158Z,80.57
2022-12-29T12:01:25.359Z,95.97
2022-12-29T12:03:58.351Z,89.43
2022-12-29T12:06:28.034Z,76.28
2022-12-29T12:08:58.001Z,76.88
2022-12-29T12:11:37.691Z,69.43
2022-12-29T12:14:17.755Z,71.80
2022-12-29T12:17:25.042Z,70.28
2022-12-29T12:20:00.939Z,69.40
2022-12-29T12:22:33.836Z,66.68
2022-12-29T12:25:12.160Z,76.57
2022-12-29T12:27:41.828Z,64.20
2022-12-29T12:30:17.019Z,60.03
2022-12-29T12:33:05.138Z,52.63
2022-12-29T12:36:12.409Z,65.13
2022-12-29T12:39:04.801Z,59.83
2022-12-29T12:41:53.169Z,46.40
2022-12-29T12:44:30.171Z,43.53
2022-12-29T12:47:18.326Z,47.45
2022-12-29T12:50:14.889Z,36.08
2022-12-29T12:53:37.199Z,37.45
2022-12-29T12:56:43.153Z,30.88
2022-12-29T13:08:25.304Z,31.08
2022-12-29T13:10:56.766Z,33.30
2022-12-29T13:13:29.643Z,41.90
2022-12-29T13:16:09.564Z,33.85
2022-12-29T13:18:57.183Z,31.50
2022-12-29T13:21:35.991Z,31.92
2022-12-29T13:24:17.151Z,30.95
2022-12-29T13:26:52.341Z,34.33
2022-12-29T13:29:32.432Z,31.70
2022-12-29T13:32:24.351Z,30.70
2022-12-29T13:35:17.776Z,31.30
2022-12-29T13:38:10.451Z,33.35
2022-12-29T13:40:42.883Z,32.40
2022-12-29T13:43:10.468Z,35.03
2022-12-29T13:45:38.286Z,30.73
2022-12-29T13:48:15.454Z,27.88
2022-12-29T13:50:44.819Z,29.80
2022-12-29T13:53:28.910Z,31.60
2022-12-29T13:56:11.038Z,30.25
2022-12-29T13:58:38.106Z,27.83
2022-12-29T14:01:24.206Z,38.40
2022-12-29T14:03:54.255Z,45.22
2022-12-29T14:06:32.407Z,35.40
2022-12-29T14:09:06.043Z,28.42
2022-12-29T14:11:42.314Z,29.23
2022-12-29T14:14:24.662Z,33.73
2022-12-29T14:16:53.261Z,30.45
2022-12-29T14:19:25.309Z,28.98
2022-12-29T14:22:12.185Z,24.90
2022-12-29T14:24:42.575Z,27.88
2022-12-29T14:27:12.386Z,30.73
2022-12-29T14:29:42.241Z,26.48
2022-12-29T14:32:27.356Z,24.80
2022-12-29T14:34:59.152Z,28.42
2022-12-29T14:37:32.321Z,33.65
2022-12-29T14:40:27.939Z,33.40
2022-12-29T14:42:57.098Z,29.42
2022-12-29T14:45:31.116Z,29.33
2022-12-29T14:47:58.324Z,29.45
2022-12-29T14:50:35.904Z,33.03
2022-12-29T14:53:08.220Z,34.70
2022-12-29T14:55:50.958Z,35.40
2022-12-29T14:58:33.477Z,35.53
2022-12-29T15:01:01.658Z,30.70
2022-12-29T15:03:52.185Z,39.63
2022-12-29T15:06:23.367Z,43.53
2022-12-29T15:08:56.856Z,42.50
2022-12-29T15:11:29.616Z,41.90
2022-12-29T15:13:56.539Z,35.92
2022-12-29T15:16:31.454Z,34.70
2022-12-29T15:18:59.480Z,35.72
2022-12-29T15:21:30.208Z,42.97
2022-12-29T15:23:57.515Z,45.72
2022-12-29T15:26:37.152Z,61.72
2022-12-29T15:29:04.049Z,65.57
2022-12-29T15:31:31.234Z,64.80
2022-12-29T15:34:25.699Z,66.78
2022-12-29T15:37:07.846Z,77.15
2022-12-29T15:39:35.625Z,64.63
2022-12-29T15:42:08.720Z,77.47
2022-12-29T15:44:40.031Z,69.35
2022-12-29T15:47:19.429Z,83.65
2022-12-29T15:49:51.485Z,72.05
2022-12-29T15:52:21.489Z,76.97
2022-12-29T15:54:54.329Z,69.20
2022-12-29T15:57:37.157Z,88.60
2022-12-29T16:00:22.390Z,69.75
2022-12-29T16:02:50.375Z,87.45
2022-12-29T16:05:19.688Z,92.43
2022-12-29T16:07:58.881Z,106.05
2022-12-29T16:10:31.506Z,116.72
2022-12-29T16:13:23.278Z,132.40
2022-12-29T16:15:53.394Z,133.82
2022-12-29T16:18:27.229Z,110.20
2022-12-29T16:20:55.709Z,97.72
2022-12-29T16:23:29.657Z,109.13
2022-12-29T16:25:58.987Z,121.30
2022-12-29T16:28:40.065Z,130.82
2022-12-29T16:31:21.406Z,87.95
2022-12-29T16:33:53.553Z,83.70
2022-12-29T16:36:52.921Z,89.43
2022-12-29T16:39:35.868Z,79.85
2022-12-29T16:42:50.532Z,82.38
2022-12-29T16:45:21.154Z,92.40
2022-12-29T16:48:08.450Z,89.03
2022-12-29T16:50:38.011Z,101.70
2022-12-29T16:53:06.516Z,113.97
2022-12-29T16:55:33.738Z,130.20
2022-12-29T16:58:01.340Z,157.60
2022-12-29T17:00:35.396Z,136.70
2022-12-29T17:03:04.577Z,107.80
2022-12-29T17:05:31.509Z,138.10
2022-12-29T17:08:02.027Z,87.95
2022-12-29T17:10:49.383Z,73.53
2022-12-29T17:13:16.237Z,75.28
2022-12-29T17:15:43.201Z,80.90
2022-12-29T17:18:13.850Z,77.97
2022-12-29T17:20:41.327Z,70.13
2022-12-29T17:23:21.141Z,72.47
2022-12-29T17:25:55.029Z,55.38
2022-12-29T17:28:31.367Z,64.90
2022-12-29T17:31:04.184Z,71.70
2022-12-29T17:33:36.405Z,74.32
2022-12-29T17:36:03.333Z,68.38
2022-12-29T17:38:40.177Z,66.68
2022-12-29T17:41:14.471Z,72.55
2022-12-29T17:43:41.409Z,69.70
2022-12-29T17:46:09.129Z,72.50
2022-12-29T17:48:37.100Z,69.88
2022-12-29T17:51:04.424Z,64.05
2022-12-29T17:53:31.521Z,67.85
2022-12-29T17:55:58.769Z,64.93
2022-12-29T17:58:31.396Z,77.22
2022-12-29T18:01:00.354Z,75.72
2022-12-29T18:03:31.139Z,68.90
2022-12-29T18:05:58.828Z,72.28
2022-12-29T18:08:25.683Z,62.80
2022-12-29T18:10:54.261Z,68.22
2022-12-29T18:13:24.389Z,70.25
2022-12-29T18:15:52.907Z,62.03
2022-12-29T18:18:23.035Z,74.35
2022-12-29T18:20:52.586Z,67.28
2022-12-29T18:23:25.210Z,71.15
2022-12-29T18:26:08.501Z,65.70
2022-12-29T18:28:35.978Z,65.28
2022-12-29T18:31:03.046Z,83.35
2022-12-29T18:33:32.311Z,72.10
2022-12-29T18:36:02.133Z,56.97
2022-12-29T18:38:30.005Z,61.90
2022-12-29T18:40:58.441Z,65.20
2022-12-29T18:43:26.017Z,74.50
2022-12-29T18:45:52.912Z,71.50
2022-12-29T18:48:21.155Z,74.60
2022-12-29T18:50:50.015Z,74.30
2022-12-29T18:53:19.596Z,90.15
2022-12-29T18:55:46.552Z,82.05
2022-12-29T18:58:13.663Z,85.15
2022-12-29T19:00:41.369Z,80.93
2022-12-29T19:03:09.963Z,68.38
2022-12-29T19:05:39.205Z,65.85
2022-12-29T19:08:07.620Z,57.58
2022-12-29T19:10:34.903Z,75.45
2022-12-29T19:13:02.407Z,67.88
2022-12-29T19:15:32.244Z,75.30
2022-12-29T19:18:42.009Z,77.95
2022-12-29T19:20:49.981Z,62.78
2022-12-29T19:23:19.646Z,60.22
2022-12-29T19:25:47.352Z,64.82
2022-12-29T19:28:26.854Z,68.28
2022-12-29T19:30:58.386Z,73.28
2022-12-29T19:33:25.789Z,87.30
2022-12-29T19:35:52.895Z,78.30
2022-12-29T19:38:20.194Z,84.72
2022-12-29T19:40:50.942Z,87.18
2022-12-29T19:43:18.141Z,68.22
2022-12-29T19:45:45.954Z,59.22
2022-12-29T19:48:16.201Z,83.70
2022-12-29T19:50:44.103Z,72.80
2022-12-29T19:53:12.012Z,70.43
2022-12-29T19:55:43.507Z,90.80
2022-12-29T19:58:10.641Z,88.07
2022-12-29T20:00:40.242Z,77.68
2022-12-29T20:03:07.410Z,75.80
2022-12-29T20:05:34.407Z,84.32
2022-12-29T20:08:01.243Z,84.93
2022-12-29T20:10:28.169Z,79.93
2022-12-29T20:12:55.043Z,90.40
2022-12-29T20:15:21.989Z,88.50
2022-12-29T20:20:35.747Z,94.18
2022-12-29T20:23:02.614Z,63.33
2022-12-29T20:25:47.297Z,74.95
2022-12-29T20:28:16.140Z,72.28
2022-12-29T20:30:43.372Z,72.03
2022-12-29T20:33:10.734Z,69.25
2022-12-29T20:35:37.935Z,68.45
2022-12-29T20:38:05.433Z,77.13
2022-12-29T20:40:32.491Z,72.07
2022-12-29T20:42:59.391Z,77.93
2022-12-29T20:45:26.541Z,77.38
2022-12-29T20:47:53.596Z,77.28
2022-12-29T20:50:20.585Z,80.32
2022-12-29T20:52:47.518Z,74.53
2022-12-29T20:55:14.995Z,77.95
2022-12-29T20:58:22.084Z,78.78
2022-12-29T21:00:33.264Z,84.60
2022-12-29T21:03:01.128Z,79.17
2022-12-29T21:05:29.146Z,101.87
2022-12-29T21:07:59.903Z,112.70
2022-12-29T21:10:26.917Z,134.73
2022-12-29T21:12:54.569Z,144.23
2022-12-29T21:15:21.964Z,141.90
2022-12-29T21:17:49.211Z,110.80
2022-12-29T21:20:30.400Z,115.60
2022-12-29T21:23:02.216Z,85.60
2022-12-29T21:25:40.053Z,109.85
2022-12-29T21:28:09.222Z,82.97
2022-12-29T21:30:36.402Z,93.18
2022-12-29T21:33:04.786Z,104.33
2022-12-29T21:35:35.893Z,98.77
2022-12-29T21:38:03.096Z,120.40
2022-12-29T21:40:30.378Z,76.03
2022-12-29T21:42:57.477Z,116.50
2022-12-29T21:45:27.683Z,69.00
2022-12-29T21:48:19.555Z,82.57
2022-12-29T21:51:07.793Z,76.53
2022-12-29T21:53:38.564Z,102.35
2022-12-29T21:56:10.838Z,110.30
2022-12-29T21:58:58.092Z,120.13
2022-12-29T22:01:45.259Z,136.32
2022-12-29T22:04:33.639Z,164.85
2022-12-29T22:07:21.161Z,156.80
2022-12-29T22:10:08.083Z,154.70
2022-12-29T22:12:54.425Z,155.30
2022-12-29T22:15:22.228Z,138.95
2022-12-29T22:17:53.106Z,108.88
2022-12-29T22:20:24.598Z,117.90
2022-12-29T22:22:52.381Z,136.45
2022-12-29T22:25:19.869Z,136.40
2022-12-29T22:27:47.559Z,135.40
2022-12-29T22:30:15.372Z,132.00
2022-12-29T22:32:43.401Z,131.00
2022-12-29T22:35:13.702Z,137.40
2022-12-29T22:37:43.443Z,128.88
2022-12-29T22:40:11.944Z,125.15
2022-12-29T22:42:39.874Z,133.40
2022-12-29T22:45:07.852Z,136.00
2022-12-29T22:47:35.600Z,137.30
2022-12-29T22:50:02.979Z,123.50
2022-12-29T22:52:30.213Z,116.05
2022-12-29T22:55:01.702Z,123.83
2022-12-29T22:57:32.236Z,120.13
2022-12-29T22:59:59.051Z,113.13
2022-12-29T23:02:26.606Z,116.87
2022-12-29T23:05:09.483Z,127.73
2022-12-29T23:07:37.285Z,121.00
2022-12-29T23:10:05.938Z,112.87
2022-12-29T23:12:33.377Z,125.97
2022-12-29T23:15:00.219Z,114.40
2022-12-29T23:17:28.833Z,129.23
2022-12-29T23:19:55.695Z,149.53
2022-12-29T23:22:23.275Z,153.20
2022-12-29T23:24:50.773Z,140.03
2022-12-29T23:27:18.155Z,133.73
2022-12-29T23:29:45.002Z,144.80
2022-12-29T23:32:12.355Z,152.20
2022-12-29T23:34:39.193Z,158.13
2022-12-29T23:37:06.757Z,146.60
2022-12-29T23:39:33.885Z,140.90
2022-12-29T23:42:00.990Z,142.10
2022-12-29T23:44:27.813Z,136.30
2022-12-29T23:46:55.336Z,136.60
2022-12-29T23:49:23.090Z,139.23
2022-12-29T23:51:50.207Z,150.53
2022-12-29T23:54:17.073Z,140.10
2022-12-29T23:56:43.919Z,149.97
2022-12-29T23:59:10.733Z,153.60
